createdAt,value
2023-02-24T00:00:31.187Z,71.10
2023-02-24T00:03:38.795Z,71.26
2023-02-24T00:06:45.698Z,71.17
2023-02-24T00:09:52.172Z,71.15
2023-02-24T00:12:58.411Z,71.23
2023-02-24T00:16:06.369Z,71.27
2023-02-24T00:19:14.987Z,71.24
2023-02-24T00:22:21.270Z,71.41
2023-02-24T00:25:25.774Z,71.36
2023-02-24T00:28:32.682Z,71.26
2023-02-24T00:31:42.271Z,71.28
2023-02-24T00:34:49.403Z,71.33
2023-02-24T00:37:55.719Z,71.39
2023-02-24T00:41:00.680Z,71.44
2023-02-24T00:44:09.874Z,71.54
2023-02-24T00:47:17.473Z,71.61
2023-02-24T00:50:24.979Z,71.46
2023-02-24T00:53:31.889Z,71.55
2023-02-24T00:56:38.259Z,71.64
2023-02-24T00:59:47.811Z,71.77
2023-02-24T01:02:54.108Z,71.75
2023-02-24T01:06:04.312Z,71.77
2023-02-24T01:09:13.406Z,71.78
2023-02-24T01:12:33.492Z,71.83
2023-02-24T01:15:39.821Z,71.91
2023-02-24T01:18:44.340Z,71.82
2023-02-24T01:21:55.211Z,71.88
2023-02-24T01:25:01.392Z,71.83
2023-02-24T01:28:11.255Z,71.78
2023-02-24T01:31:21.099Z,71.90
2023-02-24T01:34:28.499Z,71.92
2023-02-24T01:37:34.804Z,71.87
2023-02-24T01:40:39.492Z,71.85
2023-02-24T01:44:03.583Z,71.94
2023-02-24T01:47:10.345Z,71.74
2023-02-24T01:50:17.909Z,71.88
2023-02-24T01:53:24.245Z,71.98
2023-02-24T01:56:30.017Z,71.99
2023-02-24T01:59:36.722Z,72.04
2023-02-24T02:02:47.905Z,71.95
2023-02-24T02:05:59.099Z,71.97
2023-02-24T02:09:08.085Z,72.01
2023-02-24T02:12:15.358Z,72.13
2023-02-24T02:15:22.011Z,72.06
2023-02-24T02:18:35.464Z,72.13
2023-02-24T02:22:03.937Z,72.08
2023-02-24T02:25:19.697Z,72.11
2023-02-24T02:29:04.143Z,72.01
2023-02-24T02:32:39.208Z,72.04
2023-02-24T02:35:51.967Z,72.12
2023-02-24T02:39:06.141Z,72.18
2023-02-24T02:42:24.425Z,72.04
2023-02-24T02:45:39.718Z,72.08
2023-02-24T02:48:54.014Z,72.13
2023-02-24T02:52:10.596Z,72.10
2023-02-24T02:55:24.096Z,72.02
2023-02-24T02:58:35.430Z,72.05
2023-02-24T03:01:46.545Z,72.03
2023-02-24T03:04:57.416Z,72.06
2023-02-24T03:08:11.565Z,72.20
2023-02-24T03:11:21.577Z,72.20
2023-02-24T03:14:30.920Z,72.27
2023-02-24T03:17:42.101Z,72.28
2023-02-24T03:20:52.485Z,72.24
2023-02-24T03:23:59.005Z,72.09
2023-02-24T03:27:13.198Z,72.20
2023-02-24T03:30:23.324Z,72.16
2023-02-24T03:33:34.086Z,72.15
2023-02-24T03:36:40.592Z,72.27
2023-02-24T03:39:51.051Z,72.33
2023-02-24T03:43:05.833Z,72.20
2023-02-24T03:46:12.400Z,72.29
2023-02-24T03:49:18.784Z,72.36
2023-02-24T03:52:29.249Z,72.30
2023-02-24T03:55:47.560Z,72.44
2023-02-24T03:59:07.954Z,72.47
2023-02-24T04:02:22.108Z,72.58
2023-02-24T04:05:32.885Z,72.59
2023-02-24T04:08:47.398Z,72.78
2023-02-24T04:12:05.852Z,72.83
2023-02-24T04:15:16.839Z,72.99
2023-02-24T04:18:27.776Z,72.95
2023-02-24T04:21:35.340Z,73.05
2023-02-24T04:24:44.492Z,72.97
2023-02-24T04:27:52.789Z,73.17
2023-02-24T04:31:06.325Z,73.06
2023-02-24T04:34:12.618Z,73.04
2023-02-24T04:37:23.241Z,73.14
2023-02-24T04:40:29.622Z,73.09
2023-02-24T04:43:36.186Z,73.19
2023-02-24T04:46:42.521Z,73.22
2023-02-24T04:49:47.141Z,73.17
2023-02-24T04:52:55.700Z,73.34
2023-02-24T04:56:09.318Z,73.48
2023-02-24T04:59:15.891Z,73.58
2023-02-24T05:02:22.163Z,73.59
2023-02-24T05:05:28.884Z,73.63
2023-02-24T05:08:36.267Z,73.72
2023-02-24T05:11:42.965Z,73.67
2023-02-24T05:14:50.025Z,73.70
2023-02-24T05:17:57.420Z,73.84
2023-02-24T05:21:26.949Z,74.05
2023-02-24T05:24:34.741Z,73.92
2023-02-24T05:27:41.122Z,73.92
2023-02-24T05:30:45.690Z,73.93
2023-02-24T05:33:55.697Z,74.01
2023-02-24T05:37:04.588Z,73.89
2023-02-24T05:40:14.879Z,73.91
2023-02-24T05:43:21.153Z,73.94
2023-02-24T05:46:28.612Z,73.97
2023-02-24T05:49:38.926Z,74.20
2023-02-24T05:52:45.859Z,74.08
2023-02-24T05:55:52.105Z,74.12
2023-02-24T05:59:03.129Z,74.16
2023-02-24T06:02:12.513Z,74.28
2023-02-24T06:05:26.827Z,74.27
2023-02-24T06:08:42.409Z,74.34
2023-02-24T06:11:48.814Z,74.31
2023-02-24T06:14:53.676Z,74.26
2023-02-24T06:18:01.115Z,74.21
2023-02-24T06:21:08.504Z,74.17
2023-02-24T06:24:18.068Z,74.09
2023-02-24T06:27:25.368Z,74.05
2023-02-24T06:30:32.861Z,74.08
2023-02-24T06:33:39.213Z,74.10
2023-02-24T06:36:43.909Z,74.16
2023-02-24T06:39:50.115Z,74.25
2023-02-24T06:42:57.291Z,74.30
2023-02-24T06:46:06.305Z,74.29
2023-02-24T06:49:12.777Z,74.16
2023-02-24T06:52:19.810Z,74.28
2023-02-24T06:55:29.027Z,74.38
2023-02-24T06:58:35.372Z,74.36
2023-02-24T07:01:45.469Z,74.42
2023-02-24T07:04:55.482Z,74.37
2023-02-24T07:08:02.045Z,74.27
2023-02-24T07:11:08.326Z,73.98
2023-02-24T07:14:13.487Z,74.16
2023-02-24T07:17:21.030Z,74.30
2023-02-24T07:20:27.339Z,74.24
2023-02-24T07:23:32.404Z,74.20
2023-02-24T07:26:41.810Z,74.31
2023-02-24T07:29:51.786Z,74.36
2023-02-24T07:32:58.990Z,74.24
2023-02-24T07:36:08.688Z,74.35
2023-02-24T07:39:15.062Z,74.15
2023-02-24T07:42:19.593Z,74.20
2023-02-24T07:45:26.178Z,74.05
2023-02-24T07:48:32.719Z,74.13
2023-02-24T07:51:39.201Z,74.05
2023-02-24T07:54:45.489Z,74.05
2023-02-24T07:57:51.901Z,74.15
2023-02-24T08:01:08.766Z,74.10
2023-02-24T08:04:16.028Z,74.08
2023-02-24T08:07:25.709Z,73.94
2023-02-24T08:10:37.011Z,73.98
2023-02-24T08:13:45.044Z,73.85
2023-02-24T08:16:52.891Z,73.93
2023-02-24T08:20:22.110Z,73.81
2023-02-24T08:23:28.367Z,73.77
2023-02-24T08:26:32.943Z,73.77
2023-02-24T08:29:58.031Z,73.61
2023-02-24T08:33:04.304Z,73.75
2023-02-24T08:36:12.215Z,73.83
2023-02-24T08:39:19.368Z,73.77
2023-02-24T08:42:34.753Z,73.71
2023-02-24T08:45:41.058Z,73.69
2023-02-24T08:48:46.698Z,73.61
2023-02-24T08:51:54.031Z,73.54
2023-02-24T08:55:01.872Z,73.57
2023-02-24T08:58:11.289Z,73.56
2023-02-24T09:01:24.506Z,73.69
2023-02-24T09:04:30.959Z,73.51
2023-02-24T09:07:40.690Z,73.37
2023-02-24T09:10:46.982Z,73.20
2023-02-24T09:13:58.300Z,73.09
2023-02-24T09:17:07.165Z,73.16
2023-02-24T09:20:37.746Z,73.14
2023-02-24T09:23:47.287Z,72.92
2023-02-24T09:26:58.789Z,73.03
2023-02-24T09:30:08.249Z,72.97
2023-02-24T09:33:21.379Z,73.02
2023-02-24T09:36:30.250Z,72.85
2023-02-24T09:39:51.697Z,72.88
2023-02-24T09:42:58.465Z,72.94
2023-02-24T09:46:14.999Z,72.78
2023-02-24T09:49:24.730Z,72.86
2023-02-24T09:52:42.164Z,72.76
2023-02-24T09:56:05.141Z,72.64
2023-02-24T09:59:26.494Z,72.51
2023-02-24T10:02:45.118Z,72.28
2023-02-24T10:06:00.040Z,72.34
2023-02-24T10:09:15.567Z,72.45
2023-02-24T10:12:40.466Z,72.32
2023-02-24T10:16:06.218Z,72.24
2023-02-24T10:19:25.687Z,72.13
2023-02-24T10:22:50.846Z,72.01
2023-02-24T10:26:06.732Z,72.12
2023-02-24T10:29:22.717Z,72.02
2023-02-24T10:32:38.438Z,71.78
2023-02-24T10:35:44.777Z,71.67
2023-02-24T10:38:56.202Z,71.55
2023-02-24T10:42:16.933Z,71.41
2023-02-24T10:45:27.490Z,71.06
2023-02-24T10:48:41.794Z,70.99
2023-02-24T10:52:33.550Z,70.92
2023-02-24T10:56:15.015Z,70.77
2023-02-24T10:59:41.373Z,70.49
2023-02-24T11:03:19.452Z,70.40
2023-02-24T11:06:55.750Z,70.50
2023-02-24T11:10:14.061Z,70.57
2023-02-24T11:13:38.802Z,70.51
2023-02-24T11:17:05.851Z,70.47
2023-02-24T11:20:24.944Z,70.22
2023-02-24T11:23:35.028Z,70.01
2023-02-24T11:26:43.613Z,69.88
2023-02-24T11:30:08.382Z,69.62
2023-02-24T11:33:30.262Z,69.65
2023-02-24T11:36:48.257Z,69.60
2023-02-24T11:40:01.924Z,69.28
2023-02-24T11:43:13.891Z,69.14
2023-02-24T11:46:27.375Z,69.08
2023-02-24T11:49:38.636Z,69.19
2023-02-24T11:52:48.362Z,68.94
2023-02-24T11:55:59.882Z,68.68
2023-02-24T11:59:13.699Z,68.59
2023-02-24T12:02:31.114Z,68.60
2023-02-24T12:05:41.026Z,68.63
2023-02-24T12:08:52.754Z,68.55
2023-02-24T12:12:04.517Z,68.39
2023-02-24T12:15:20.426Z,68.24
2023-02-24T12:18:27.717Z,68.29
2023-02-24T12:21:37.979Z,68.19
2023-02-24T12:24:50.020Z,68.09
2023-02-24T12:28:11.320Z,68.24
2023-02-24T12:31:32.292Z,68.27
2023-02-24T12:34:50.901Z,68.13
2023-02-24T12:38:03.971Z,68.38
2023-02-24T12:41:32.247Z,67.76
2023-02-24T12:44:48.066Z,67.61
2023-02-24T12:48:06.115Z,67.68
2023-02-24T12:51:22.778Z,67.29
2023-02-24T12:54:37.706Z,67.25
2023-02-24T12:57:53.209Z,67.05
2023-02-24T13:01:10.378Z,66.95
2023-02-24T13:04:31.273Z,67.02
2023-02-24T13:07:53.160Z,66.94
2023-02-24T13:11:06.134Z,66.61
2023-02-24T13:14:22.549Z,66.36
2023-02-24T13:17:29.746Z,66.38
2023-02-24T13:20:38.798Z,66.52
2023-02-24T13:23:58.248Z,66.27
2023-02-24T13:27:25.064Z,66.53
2023-02-24T13:30:39.570Z,66.66
2023-02-24T13:33:48.448Z,66.75
2023-02-24T13:36:54.672Z,66.74
2023-02-24T13:39:59.228Z,66.99
2023-02-24T13:43:08.215Z,66.98
2023-02-24T13:46:21.165Z,66.95
2023-02-24T13:49:37.077Z,66.87
2023-02-24T13:53:02.049Z,66.75
2023-02-24T13:56:27.702Z,66.63
2023-02-24T14:00:01.752Z,66.40
2023-02-24T14:03:17.677Z,66.32
2023-02-24T14:06:27.510Z,66.38
2023-02-24T14:09:41.689Z,66.24
2023-02-24T14:12:49.608Z,66.15
2023-02-24T14:15:56.404Z,66.21
2023-02-24T14:19:04.604Z,66.19
2023-02-24T14:22:21.747Z,66.13
2023-02-24T14:25:31.320Z,66.22
2023-02-24T14:28:39.786Z,66.20
2023-02-24T14:31:51.250Z,66.17
2023-02-24T14:34:58.146Z,66.08
2023-02-24T14:38:05.266Z,65.99
2023-02-24T14:41:22.466Z,66.04
2023-02-24T14:44:30.101Z,66.09
2023-02-24T14:47:37.945Z,65.93
2023-02-24T14:50:44.369Z,65.81
2023-02-24T14:53:53.464Z,65.89
2023-02-24T14:57:02.012Z,65.97
2023-02-24T15:00:17.531Z,65.69
2023-02-24T15:03:29.449Z,65.72
2023-02-24T15:06:40.997Z,65.64
2023-02-24T15:09:49.148Z,65.61
2023-02-24T15:13:00.756Z,65.48
2023-02-24T15:16:15.786Z,65.42
2023-02-24T15:19:29.160Z,65.38
2023-02-24T15:22:39.519Z,65.42
2023-02-24T15:25:47.937Z,65.26
2023-02-24T15:29:01.168Z,65.40
2023-02-24T15:32:13.134Z,65.31
2023-02-24T15:35:26.218Z,65.33
2023-02-24T15:38:37.910Z,65.30
2023-02-24T15:41:47.127Z,65.23
2023-02-24T15:44:56.754Z,65.18
2023-02-24T15:48:05.119Z,65.28
2023-02-24T15:51:19.569Z,65.35
2023-02-24T15:54:31.889Z,65.20
2023-02-24T15:57:38.341Z,65.22
2023-02-24T16:00:45.648Z,65.19
2023-02-24T16:03:51.921Z,65.37
2023-02-24T16:06:58.541Z,65.25
2023-02-24T16:10:05.618Z,65.15
2023-02-24T16:13:20.502Z,65.39
2023-02-24T16:16:27.717Z,65.31
2023-02-24T16:19:34.020Z,65.11
2023-02-24T16:22:40.235Z,65.30
2023-02-24T16:25:45.722Z,65.21
2023-02-24T16:28:55.564Z,65.35
2023-02-24T16:32:01.943Z,65.32
2023-02-24T16:35:11.113Z,65.54
2023-02-24T16:38:19.288Z,65.51
2023-02-24T16:41:26.034Z,65.40
2023-02-24T16:44:32.293Z,65.45
2023-02-24T16:47:38.757Z,65.37
2023-02-24T16:50:45.940Z,65.31
2023-02-24T16:53:52.180Z,65.41
2023-02-24T16:56:56.769Z,65.40
2023-02-24T17:00:03.308Z,65.40
2023-02-24T17:03:16.437Z,65.48
2023-02-24T17:06:23.868Z,65.51
2023-02-24T17:09:33.395Z,65.49
2023-02-24T17:12:39.667Z,65.51
2023-02-24T17:15:46.070Z,65.48
2023-02-24T17:18:52.275Z,65.56
2023-02-24T17:21:56.781Z,65.58
2023-02-24T17:25:03.414Z,65.63
2023-02-24T17:28:11.707Z,65.69
2023-02-24T17:31:18.473Z,65.67
2023-02-24T17:34:24.881Z,65.66
2023-02-24T17:37:29.363Z,65.92
2023-02-24T17:40:35.698Z,65.97
2023-02-24T17:43:41.818Z,66.12
2023-02-24T17:46:48.114Z,66.25
2023-02-24T17:49:54.360Z,66.55
2023-02-24T17:53:00.703Z,66.72
2023-02-24T17:56:06.285Z,66.85
2023-02-24T17:59:12.404Z,67.01
2023-02-24T18:02:20.142Z,67.08
2023-02-24T18:05:26.370Z,67.25
2023-02-24T18:08:30.969Z,67.39
2023-02-24T18:11:37.194Z,67.35
2023-02-24T18:14:43.466Z,67.48
2023-02-24T18:17:48.152Z,67.35
2023-02-24T18:20:58.736Z,67.37
2023-02-24T18:24:05.438Z,67.52
2023-02-24T18:27:11.584Z,67.62
2023-02-24T18:30:18.918Z,67.73
2023-02-24T18:33:25.515Z,67.89
2023-02-24T18:36:32.129Z,67.92
2023-02-24T18:39:38.303Z,68.03
2023-02-24T18:42:43.911Z,68.20
2023-02-24T18:45:50.187Z,68.20
2023-02-24T18:48:54.743Z,68.33
2023-02-24T18:52:01.499Z,68.37
2023-02-24T18:55:09.092Z,68.35
2023-02-24T18:58:16.064Z,68.35
2023-02-24T19:01:24.199Z,68.42
2023-02-24T19:04:30.329Z,68.51
2023-02-24T19:07:36.662Z,68.61
2023-02-24T19:10:43.794Z,68.67
2023-02-24T19:13:50.385Z,68.68
2023-02-24T19:16:56.669Z,68.80
2023-02-24T19:20:01.146Z,68.79
2023-02-24T19:23:07.404Z,68.75
2023-02-24T19:26:17.794Z,68.80
2023-02-24T19:29:25.972Z,68.86
2023-02-24T19:32:33.430Z,68.86
2023-02-24T19:35:42.998Z,68.73
2023-02-24T19:38:49.257Z,68.86
2023-02-24T19:41:54.912Z,69.18
2023-02-24T19:45:01.089Z,69.01
2023-02-24T19:48:07.449Z,68.94
2023-02-24T19:51:16.114Z,69.06
2023-02-24T19:54:23.294Z,69.12
2023-02-24T19:57:29.673Z,69.20
2023-02-24T20:00:35.928Z,69.15
2023-02-24T20:03:41.173Z,69.16
2023-02-24T20:06:47.572Z,69.29
2023-02-24T20:09:54.778Z,69.42
2023-02-24T20:13:01.018Z,69.45
2023-02-24T20:16:12.951Z,69.43
2023-02-24T20:19:19.252Z,69.40
2023-02-24T20:22:23.793Z,69.44
2023-02-24T20:25:30.192Z,69.58
2023-02-24T20:28:36.540Z,69.68
2023-02-24T20:31:41.377Z,69.63
2023-02-24T20:34:47.793Z,69.60
2023-02-24T20:37:54.127Z,69.58
2023-02-24T20:41:00.331Z,69.62
2023-02-24T20:44:07.284Z,69.59
2023-02-24T20:47:13.665Z,69.76
2023-02-24T20:50:19.988Z,69.65
2023-02-24T20:53:26.202Z,69.74
2023-02-24T20:56:36.548Z,69.63
2023-02-24T20:59:49.230Z,69.63
2023-02-24T21:03:00.045Z,69.75
2023-02-24T21:06:10.160Z,69.64
2023-02-24T21:09:16.811Z,69.62
2023-02-24T21:12:23.025Z,69.72
2023-02-24T21:15:27.607Z,69.71
2023-02-24T21:18:34.893Z,69.64
2023-02-24T21:21:41.210Z,69.65
2023-02-24T21:24:45.724Z,69.59
2023-02-24T21:27:51.898Z,69.54
2023-02-24T21:30:56.535Z,69.71
2023-02-24T21:34:03.864Z,69.63
2023-02-24T21:37:10.167Z,69.57
2023-02-24T21:40:17.682Z,69.76
2023-02-24T21:43:24.426Z,69.73
2023-02-24T21:46:30.814Z,69.71
2023-02-24T21:49:37.895Z,69.74
2023-02-24T21:52:45.516Z,69.96
2023-02-24T21:55:51.881Z,69.98
2023-02-24T21:59:01.131Z,70.19
2023-02-24T22:02:07.374Z,70.39
2023-02-24T22:05:12.037Z,70.47
2023-02-24T22:08:18.392Z,70.64
2023-02-24T22:11:25.327Z,70.63
2023-02-24T22:14:31.591Z,70.83
2023-02-24T22:17:37.023Z,70.90
2023-02-24T22:20:43.315Z,71.02
2023-02-24T22:23:48.369Z,71.13
2023-02-24T22:26:54.570Z,71.21
2023-02-24T22:29:59.068Z,71.39
2023-02-24T22:33:05.297Z,71.56
2023-02-24T22:36:10.856Z,71.75
2023-02-24T22:39:17.631Z,71.75
2023-02-24T22:42:23.895Z,71.85
2023-02-24T22:45:28.396Z,71.96
2023-02-24T22:48:36.062Z,71.98
2023-02-24T22:51:42.522Z,72.04
2023-02-24T22:54:48.889Z,72.01
2023-02-24T22:57:53.495Z,72.03
2023-02-24T23:00:59.865Z,72.15
2023-02-24T23:04:07.559Z,72.23
2023-02-24T23:07:13.782Z,72.33
2023-02-24T23:10:20.408Z,72.46
2023-02-24T23:13:26.633Z,72.52
2023-02-24T23:16:35.295Z,72.70
2023-02-24T23:19:41.576Z,72.71
2023-02-24T23:22:46.577Z,72.83
2023-02-24T23:25:54.701Z,73.07
2023-02-24T23:29:00.956Z,72.93
2023-02-24T23:32:07.361Z,73.28
2023-02-24T23:35:14.308Z,73.19
2023-02-24T23:38:20.692Z,73.29
2023-02-24T23:41:25.222Z,73.50
2023-02-24T23:44:31.486Z,73.47
2023-02-24T23:47:36.117Z,73.49
2023-02-24T23:50:43.426Z,73.73
2023-02-24T23:53:50.901Z,73.74
2023-02-24T23:56:57.328Z,73.67
